Terminal Aerodrome Forecast
Issued by NWS

Home | Current Version | Previous Version | Text Only | Print | Product List | Glossary On
Versions: 1 2 3 4 5 6 7 8 9 10 11 12 13 14
000
FTUS45 KPIH 050520
TAFSUN
TAF
KSUN 050520Z 0506/0606 28007KT P6SM SCT120 BKN200
     FM050800 31010KT P6SM FEW110 BKN180
     FM051200 31007KT P6SM FEW050 BKN100 BKN180
     FM051900 15011KT P6SM VCTS SCT050CB BKN090 OVC130
     FM060100 VRB06KT P6SM OVC090=

USA.gov is the U.S. government's official web portal to all federal, state and local government web resources and services.